aviador You're here:

KEUG Decoded Metar

EUGENE in OR, USA
Report Time2017-10-23 23:54:00
UTC Time2017-10-24 00:20:12
Flight Rules vfr VFR
Wind350° at 09 kt
W.Decomp.*RWY 34: 9.0 kt HW 0.9 kt LCW
W.Rank350° ranks 10
Current wind is above 350° avg. (6.7)
Visibility9999 m
Phenomena:N/A
Clouds:Few 013 Hf
Expected CloudBase > 1,200 ft AGL from Temp-Dew spread
CeilingNone
Temp16°C (ISA +2)
Dew Point13°C (83% RH)
AAT13.7°C
QNH1034 hPa
Density Alt75 ft
Elevation374 ft
Report Wrong Elevation
Raw Report
KEUG 232354Z 35009KT 10SM FEW013 16/13 A3053 RMK AO2 SLP338
T01610128 10161 20100 57016=

Extra information for KEUG:More info

Metar Taf Metar & Taf Last 4 Metars F.Rules Stats Wind Profile Meteogram Temp Stats Airport Information Weather charts Add Link Nearby VenuesMetar ALERT Operation Metar Decoded Social comments

AIRNAV info for KEUG